Latest Weather Observations for Lake Julius

IDQ60801

Issued at 11:52 pm EST Sunday 9 August 2020 (issued every 10 minutes, with the page automatically refreshed every 10 minutes)

About weather observations | Map of weather stations | Latest weather observations for QLD | Other Formats
Station Details ID: 029181 Name: LAKE JULIUS AWS Lat: -20.12 Lon: 139.73 Height: 237.0 m
Data from the previous 72 hours. | See also: Recent months at Lake Julius
Date/Time
EST
Temp
°C
App
Temp
°C
Dew
Point
°C
Rel
Hum
%
Delta-T
°C
Wind Press
QNH
hPa
Press
MSL
hPa
Rain since
9am
mm
Dir  Spd
km/h
Gust
km/h
Spd
kts
Gust
kts
09/11:30pm 17.0 12.8 -1.1 29 7.7 S 11 17 6 9 - - 0.0
09/11:00pm 17.3 13.5 -0.9 29 7.8 S 9 15 5 8 - - 0.0
09/10:30pm 17.6 13.4 -0.6 29 7.9 S 11 19 6 10 - - 0.0
09/10:00pm 17.8 14.4 -0.9 28 8.1 S 7 11 4 6 - - 0.0
09/09:30pm 18.1 14.7 -1.7 26 8.4 S 6 9 3 5 - - 0.0
09/09:00pm 18.3 14.8 -1.5 26 8.5 S 7 9 4 5 - - 0.0
09/08:30pm 19.1 14.9 -3.7 21 9.4 SSE 9 15 5 8 - - 0.0
09/08:00pm 19.2 15.6 -3.6 21 9.4 S 6 11 3 6 - - 0.0
09/07:30pm 19.5 15.7 -3.4 21 9.5 S 7 11 4 6 - - 0.0
09/07:00pm 20.3 16.4 -4.8 18 10.2 S 7 13 4 7 - - 0.0
09/06:30pm 21.1 16.2 -7.4 14 11.1 S 11 19 6 10 - - 0.0
09/06:00pm 21.8 16.4 -8.8 12 11.7 SSW 13 20 7 11 - - 0.0
09/05:30pm 22.4 17.1 -7.3 13 11.8 SSE 13 20 7 11 - - 0.0
09/05:00pm 22.8 17.4 -8.1 12 12.1 SSE 13 19 7 10 - - 0.0
09/04:30pm 23.0 18.1 -6.9 13 12.0 S 11 20 6 11 - - 0.0
09/04:00pm 22.7 17.3 -4.4 16 11.4 SSE 15 28 8 15 - - 0.0
09/03:30pm 22.7 17.2 -5.2 15 11.5 SSW 15 28 8 15 - - 0.0
09/03:00pm 22.1 17.1 -4.1 17 11.0 SSE 13 22 7 12 - - 0.0
09/02:30pm 22.2 16.9 -4.0 17 11.0 SSE 15 24 8 13 - - 0.0
09/02:00pm 21.6 15.8 -4.5 17 10.8 SSE 17 24 9 13 - - 0.0
09/01:30pm 21.8 17.6 -0.8 22 10.1 SSE 11 22 6 12 - - 0.0
09/01:00pm 20.5 16.2 -1.3 23 9.5 S 11 17 6 9 - - 0.0
09/12:30pm 20.3 15.7 -0.9 24 9.3 SSW 13 22 7 12 - - 0.0
09/12:00pm 19.3 14.5 0.4 28 8.5 S 15 24 8 13 - - 0.0
09/11:30am 19.5 16.2 2.4 32 8.0 SSE 9 17 5 9 - - 0.0
09/11:00am 17.9 14.0 1.0 32 7.6 S 11 19 6 10 - - 0.0
09/10:30am 17.2 13.1 2.0 36 6.9 SSW 13 20 7 11 - - 0.0
09/10:00am 16.2 12.7 1.5 37 6.6 S 9 17 5 9 - - 0.0
09/09:30am 15.7 11.9 1.8 39 6.2 S 11 17 6 9 - - 0.0
09/09:00am 15.0 11.3 2.5 43 5.6 S 11 17 6 9 - - 0.0
09/08:30am 14.2 11.0 3.1 47 5.0 S 9 15 5 8 - - 0.0
09/08:00am 12.9 9.7 3.0 51 4.4 SSW 9 13 5 7 - - 0.0
09/07:30am 11.8 9.1 3.8 58 3.6 SSW 7 11 4 6 - - 0.0
09/07:00am 11.5 9.9 4.3 61 3.3 S 2 6 1 3 - - 0.0
09/06:30am 12.0 10.4 4.5 60 3.4 SW 2 4 1 2 - - 0.0
09/06:00am 12.3 9.9 4.3 58 3.7 SSW 6 9 3 5 - - 0.0
09/05:30am 12.5 10.0 4.7 59 3.6 SSW 7 11 4 6 - - 0.0
09/05:00am 11.7 9.5 6.0 68 2.7 SSW 7 11 4 6 - - 0.0
09/04:30am 11.4 10.6 6.7 73 2.3 CALM 0 4 0 2 - - 0.0
09/04:00am 11.9 11.2 6.8 71 2.5 CALM 0 0 0 0 - - 0.0
09/03:30am 11.9 11.2 7.0 72 2.4 CALM 0 0 0 0 - - 0.0
09/03:00am 12.7 11.9 6.3 65 3.1 CALM 0 2 0 1 - - 0.0
09/02:30am 13.4 11.8 6.3 62 3.4 NNE 4 4 2 2 - - 0.0
09/02:00am 14.1 12.8 6.0 58 3.9 NNE 2 6 1 3 - - 0.0
09/01:30am 13.8 12.2 6.4 61 3.6 NE 4 9 2 5 - - 0.0
09/01:00am 15.4 13.2 5.3 51 4.9 SSW 6 7 3 4 - - 0.0
09/12:30am 15.4 12.7 5.6 52 4.7 SSW 9 13 5 7 - - 0.0
09/12:00am 15.1 12.8 5.9 54 4.5 SSW 7 9 4 5 - - 0.0
 
Date/Time
EST
Temp
°C
App
Temp
°C
Dew
Point
°C
Rel
Hum
%
Delta-T
°C
Wind Press
QNH
hPa
Press
MSL
hPa
Rain since
9am
mm
Dir  Spd
km/h
Gust
km/h
Spd
kts
Gust
kts
08/11:30pm 16.3 14.0 5.9 50 5.1 SSW 7 9 4 5 - - 0.0
08/11:00pm 16.6 14.2 5.3 47 5.5 SSW 7 11 4 6 - - 0.0
08/10:30pm 17.4 15.1 5.0 44 6.0 SSW 6 7 3 4 - - 0.0
08/10:00pm 18.3 15.4 4.5 40 6.7 S 9 13 5 7 - - 0.0
08/09:30pm 18.7 16.1 4.1 38 7.0 S 7 9 4 5 - - 0.0
08/09:00pm 19.4 16.8 4.0 36 7.4 S 7 11 4 6 - - 0.0
08/08:30pm 20.0 17.4 4.1 35 7.7 SSE 7 13 4 7 - - 0.0
08/08:00pm 19.1 17.0 5.6 41 6.7 S 6 7 3 4 - - 0.0
08/07:30pm 20.7 18.1 4.3 34 8.0 S 7 11 4 6 - - 0.0
08/07:00pm 21.5 18.9 3.2 30 8.8 SSE 6 11 3 6 - - 0.0
08/06:30pm 22.1 18.6 3.3 29 9.1 SSE 11 15 6 8 - - 0.0
08/06:00pm 22.7 19.2 3.3 28 9.4 S 11 17 6 9 - - 0.0
08/05:30pm 23.3 20.1 3.3 27 9.8 SSE 9 17 5 9 - - 0.0
08/05:00pm 24.8 23.0 3.5 25 10.6 ESE 2 7 1 4 - - 0.0
08/04:30pm 23.8 20.5 2.6 25 10.3 SSW 9 19 5 10 - - 0.0
08/04:00pm 23.7 20.0 2.5 25 10.2 SSE 11 17 6 9 - - 0.0
08/03:30pm 24.8 22.3 4.0 26 10.4 SSW 6 13 3 7 - - 0.0
08/03:00pm 23.8 21.0 3.2 26 10.1 SSW 7 15 4 8 - - 0.0
08/02:30pm 23.3 20.5 3.3 27 9.8 SSW 7 13 4 7 - - 0.0
08/02:00pm 22.8 20.2 4.3 30 9.2 SSW 7 13 4 7 - - 0.0
08/01:30pm 22.1 19.6 4.7 32 8.7 SW 7 13 4 7 - - 0.0
08/01:00pm 22.3 20.0 5.7 34 8.4 SW 7 15 4 8 - - 0.0
08/12:30pm 20.8 18.3 4.8 35 7.9 SSW 7 15 4 8 - - 0.0
08/12:00pm 20.0 16.8 4.9 37 7.4 SSW 11 20 6 11 - - 0.0
08/11:30am 19.2 16.4 5.3 40 6.9 S 9 19 5 10 - - 0.0
08/11:00am 18.2 15.1 5.4 43 6.3 SSW 11 19 6 10 - - 0.0
08/10:30am 17.6 14.1 5.5 45 5.9 SSW 13 19 7 10 - - 0.0
08/10:00am 16.7 13.9 5.3 47 5.5 S 9 17 5 9 - - 0.0
08/09:30am 15.9 13.2 5.5 50 5.0 S 9 20 5 11 - - 0.0
08/09:00am 14.6 10.7 5.4 54 4.4 S 15 26 8 14 - - 0.0
08/08:30am 14.2 12.3 6.8 61 3.6 S 6 9 3 5 - - 0.0
08/08:00am 13.0 10.5 6.6 65 3.1 SSW 9 17 5 9 - - 0.0
08/07:30am 12.2 10.1 6.5 68 2.7 SSW 7 13 4 7 - - 0.0
08/07:00am 12.3 10.2 6.8 69 2.7 S 7 13 4 7 - - 0.0
08/06:30am 12.5 9.7 6.8 68 2.8 S 11 15 6 8 - - 0.0
08/06:00am 12.6 10.2 7.1 69 2.7 S 9 22 5 12 - - 0.0
08/05:30am 13.1 9.6 7.3 68 2.9 S 15 22 8 12 - - 0.0
08/05:00am - - - - - S 13 22 7 12 - - 0.0
08/04:30am 14.0 9.8 7.3 64 3.3 S 19 24 10 13 - - 0.0
08/04:00am - - - - - S 13 19 7 10 - - 0.0
08/03:30am - - - - - S 13 20 7 11 - - 0.0
08/03:00am 15.6 13.0 6.1 53 4.6 SSE 9 15 5 8 - - 0.0
08/02:30am - - - - - SSE 11 19 6 10 - - 0.0
08/02:00am - - - - - S 4 7 2 4 - - 0.0
08/01:30am - - - - - S 7 11 4 6 - - 0.0
08/01:00am - - - - - SSW 7 9 4 5 - - 0.0
08/12:30am - - - - - CALM 0 0 0 0 - - 0.0
08/12:00am - - - - - CALM 0 0 0 0 - - 0.0
 
Date/Time
EST
Temp
°C
App
Temp
°C
Dew
Point
°C
Rel
Hum
%
Delta-T
°C
Wind Press
QNH
hPa
Press
MSL
hPa
Rain since
9am
mm
Dir  Spd
km/h
Gust
km/h
Spd
kts
Gust
kts
07/11:30pm - - - - - CALM 0 0 0 0 - - 0.0
07/11:00pm - - - - - CALM 0 0 0 0 - - 0.0
07/10:30pm - - - - - NNE 2 4 1 2 - - 0.0
07/10:00pm - - - - - SSW 6 7 3 4 - - 0.0
07/09:30pm - - - - - SSW 6 7 3 4 - - 0.0
07/09:00pm - - - - - SSW 7 11 4 6 - - 0.0
07/08:30pm - - - - - SW 7 9 4 5 - - 0.0
07/08:00pm - - - - - SW 9 11 5 6 - - 0.0
07/07:30pm - - - - - SW 4 6 2 3 - - 0.0
07/07:00pm - - - - - SW 7 11 4 6 - - 0.0
07/06:30pm - - - - - SW 6 7 3 4 - - 0.0
07/06:00pm - - - - - SW 11 19 6 10 - - 0.0
07/05:30pm - - - - - SW 9 13 5 7 - - 0.0
07/05:00pm - - - - - W 7 17 4 9 - - 0.0
07/04:30pm - - - - - WSW 7 17 4 9 - - 0.0
07/04:00pm - - - - - WNW 13 24 7 13 - - 0.0
07/03:30pm - - - - - SSW 7 15 4 8 - - 0.0
07/03:00pm - - - - - S 6 11 3 6 - - 0.0
07/02:30pm - - - - - ESE 4 6 2 3 - - 0.0
07/02:00pm - - - - - SSW 13 22 7 12 - - 0.0
07/01:30pm - - - - - SW 7 11 4 6 - - 0.0
07/01:00pm - - - - - SSW 4 13 2 7 - - 0.0
07/12:30pm - - - - - SW 7 15 4 8 - - 0.0
07/12:00pm - - - - - SW 7 15 4 8 - - 0.0
07/11:30am - - - - - SW 9 15 5 8 - - 0.0
07/11:00am - - - - - SW 13 20 7 11 - - 0.0
07/10:30am - - - - - SSW 11 22 6 12 - - 0.0
07/10:00am - - - - - S 13 20 7 11 - - 0.0
07/09:30am - - - - - SSW 17 24 9 13 - - 0.0
07/09:00am - - - - - S 19 30 10 16 - - 22.4
07/08:30am - - - - - S 13 20 7 11 - - 22.4
07/08:00am - - - - - S 9 17 5 9 - - 22.4
07/07:30am - - - - - S 9 15 5 8 - - 22.4
07/07:00am - - - - - S 13 17 7 9 - - 22.4
07/06:30am - - - - - S 11 17 6 9 - - 22.4
07/06:00am - - - - - S 9 17 5 9 - - 22.4
07/05:30am - - - - - SSW 9 17 5 9 - - 22.4
07/05:00am - - - - - SSW 11 17 6 9 - - 22.4
07/04:30am - - - - - SSW 13 24 7 13 - - 22.4
07/04:00am - - - - - SW 11 17 6 9 - - 22.4
07/03:30am - - - - - SW 9 15 5 8 - - 22.4
07/03:00am - - - - - WSW 6 13 3 7 - - 22.4
07/02:30am - - - - - NNE 6 7 3 4 - - 22.4
07/02:00am - - - - - N 2 6 1 3 - - 22.4
07/01:30am - - - - - N 6 9 3 5 - - 22.4
07/01:00am - - - - - N 6 9 3 5 - - 22.4
07/12:30am - - - - - N 6 7 3 4 - - 22.4
07/12:00am - - - - - NNE 2 6 1 3 - - 22.4

Other formats

Comma delimited format used in spreadsheet applications
http://www.bom.gov.au/fwo/IDQ60801/IDQ60801.94348.axf

JavaScript Object Notation format (JSON) in row-major order
http://www.bom.gov.au/fwo/IDQ60801/IDQ60801.94348.json

Data quality

Most of these data are generated automatically and are frequently updated. Quality checks on data are not normally performed. It is possible for incorrect values to appear. Refer to information at About Latest Weather Observations and please check the disclaimer before using these data.